Time;durP1;ratioP1;P1;durP2;ratioP2;P2;SDS_P1;SDS_P2;PMS_P1;PMS_P2;Temp;Humidity;BMP_temperature;BMP_pressure;BME280_temperature;BME280_humidity;BME280_pressure;Samples;Min_cycle;Max_cycle;Signal;HPM_P1;HPM_P2
2023/08/18 00:00:54;;;;;;;4;2.3;;;;;;;17.78;100;939.9934;;;;
2023/08/18 00:03:20;;;;;;;2.2;2;;;;;;;17.68;100;940.0634;;;;
2023/08/18 00:05:45;;;;;;;2.2;2;;;;;;;17.63;100;940.0719;;;;
2023/08/18 00:08:12;;;;;;;3.1;2.4;;;;;;;17.69;100;940.0029;;;;
2023/08/18 00:10:37;;;;;;;3.3;2.4;;;;;;;17.7;100;939.9261;;;;
2023/08/18 00:13:02;;;;;;;3.1;2.5;;;;;;;17.64;100;939.8317;;;;
2023/08/18 00:15:27;;;;;;;2.8;2.5;;;;;;;17.59;100;939.92;;;;
2023/08/18 00:17:55;;;;;;;3.7;2.7;;;;;;;17.6;100;939.799;;;;
2023/08/18 00:20:20;;;;;;;2.9;2.2;;;;;;;17.51;100;939.8478;;;;
2023/08/18 00:23:26;;;;;;;3.5;2.7;;;;;;;17.44;100;939.8593;;;;
2023/08/18 00:26:28;;;;;;;4;2.3;;;;;;;17.51;100;939.8978;;;;
2023/08/18 00:28:38;;;;;;;2.5;2.3;;;;;;;17.43;100;939.8773;;;;
2023/08/18 00:31:03;;;;;;;3.9;2.4;;;;;;;17.23;100;939.8725;;;;
2023/08/18 00:33:29;;;;;;;4.4;2.4;;;;;;;17.16;100;939.9753;;;;
2023/08/18 00:35:54;;;;;;;3.5;2.7;;;;;;;17.25;100;939.8705;;;;
2023/08/18 00:38:21;;;;;;;2.8;2.3;;;;;;;17.25;100;939.8988;;;;
2023/08/18 00:40:46;;;;;;;3.1;2.1;;;;;;;17.16;100;939.8105;;;;
2023/08/18 00:43:11;;;;;;;2.6;2.4;;;;;;;17.27;100;939.8398;;;;
2023/08/18 00:45:36;;;;;;;2.6;2.4;;;;;;;17.22;100;939.8024;;;;
2023/08/18 00:48:04;;;;;;;2.6;2.4;;;;;;;17.01;100;939.7791;;;;
2023/08/18 00:50:29;;;;;;;3.7;2.4;;;;;;;17.02;100;939.8315;;;;
2023/08/18 00:52:56;;;;;;;2.3;2.1;;;;;;;16.99;100;939.7615;;;;
2023/08/18 00:55:21;;;;;;;3.7;2.5;;;;;;;16.95;100;939.795;;;;
2023/08/18 00:58:18;;;;;;;3.1;2.5;;;;;;;16.95;100;939.7943;;;;
2023/08/18 01:00:44;;;;;;;2.6;2.4;;;;;;;16.91;100;939.7908;;;;
2023/08/18 01:03:09;;;;;;;2.8;2.4;;;;;;;16.98;100;939.6724;;;;
2023/08/18 01:05:34;;;;;;;3.7;2.7;;;;;;;17.09;100;939.7132;;;;
2023/08/18 01:08:02;;;;;;;3.8;2.7;;;;;;;17.07;100;939.719;;;;
2023/08/18 01:10:27;;;;;;;3.5;2.4;;;;;;;17.03;100;939.7034;;;;
2023/08/18 01:12:52;;;;;;;4;2.8;;;;;;;17.06;100;939.7667;;;;
2023/08/18 01:15:19;;;;;;;2.7;2.3;;;;;;;16.99;100;939.6627;;;;
2023/08/18 01:17:44;;;;;;;4.7;2.4;;;;;;;16.97;100;939.7047;;;;
2023/08/18 01:20:10;;;;;;;2.7;2.5;;;;;;;16.82;100;939.7524;;;;
2023/08/18 01:22:35;;;;;;;3.3;3;;;;;;;16.72;100;939.7542;;;;
2023/08/18 01:25:00;;;;;;;5.1;4.6;;;;;;;16.67;100;939.6993;;;;
2023/08/18 01:27:25;;;;;;;3.5;3;;;;;;;16.5;100;939.6669;;;;
2023/08/18 01:29:52;;;;;;;3.7;3;;;;;;;16.59;100;939.673;;;;
2023/08/18 01:32:17;;;;;;;4.1;2.5;;;;;;;16.65;100;939.6992;;;;
2023/08/18 01:34:44;;;;;;;2.5;2.2;;;;;;;16.63;100;939.6883;;;;
2023/08/18 01:37:09;;;;;;;3.9;2.3;;;;;;;16.57;100;939.7319;;;;
2023/08/18 01:39:34;;;;;;;3.2;2.3;;;;;;;16.71;100;939.7333;;;;
2023/08/18 01:41:59;;;;;;;2.9;2.4;;;;;;;16.65;100;939.6534;;;;
2023/08/18 01:44:26;;;;;;;2.3;2.1;;;;;;;16.66;100;939.6492;;;;
2023/08/18 01:46:51;;;;;;;4.3;2.4;;;;;;;16.63;100;939.6995;;;;
2023/08/18 01:49:20;;;;;;;2.5;2.3;;;;;;;16.65;100;939.7032;;;;
2023/08/18 01:51:45;;;;;;;3.2;2.3;;;;;;;16.58;100;939.7134;;;;
2023/08/18 01:54:10;;;;;;;4.1;2.6;;;;;;;16.52;100;939.6183;;;;
2023/08/18 01:56:35;;;;;;;3.8;2.4;;;;;;;16.54;100;939.6415;;;;
2023/08/18 01:59:01;;;;;;;3.8;2.5;;;;;;;16.34;100;939.6217;;;;
2023/08/18 02:01:26;;;;;;;3.3;2.2;;;;;;;16.38;100;939.6277;;;;
2023/08/18 02:03:53;;;;;;;3;2.5;;;;;;;16.4;100;939.572;;;;
2023/08/18 02:06:20;;;;;;;2.5;2.3;;;;;;;16.34;100;939.6314;;;;
2023/08/18 02:08:45;;;;;;;4.1;2.2;;;;;;;16.4;100;939.4803;;;;
2023/08/18 02:11:15;;;;;;;2.4;2.1;;;;;;;16.39;100;939.5939;;;;
2023/08/18 02:13:40;;;;;;;2.3;2.1;;;;;;;16.51;100;939.4891;;;;
2023/08/18 02:16:05;;;;;;;3.3;2.3;;;;;;;16.43;100;939.5912;;;;
2023/08/18 02:18:33;;;;;;;3.1;2.3;;;;;;;16.53;100;939.5822;;;;
2023/08/18 02:20:57;;;;;;;4.6;2.3;;;;;;;16.43;100;939.543;;;;
2023/08/18 02:23:25;;;;;;;3.4;2.4;;;;;;;16.49;100;939.5633;;;;
2023/08/18 02:25:50;;;;;;;2.8;2.1;;;;;;;16.5;100;939.5687;;;;
2023/08/18 02:28:17;;;;;;;2.9;2;;;;;;;16.36;100;939.5974;;;;
2023/08/18 02:30:41;;;;;;;3.3;2.4;;;;;;;16.39;100;939.5383;;;;
2023/08/18 02:33:08;;;;;;;2.7;2.2;;;;;;;16.22;100;939.5651;;;;
2023/08/18 02:35:33;;;;;;;3.1;2.3;;;;;;;16.19;100;939.5691;;;;
2023/08/18 02:38:02;;;;;;;3.9;3;;;;;;;16.16;100;939.6055;;;;
2023/08/18 02:40:27;;;;;;;2.9;2.5;;;;;;;16.22;100;939.5555;;;;
2023/08/18 02:42:52;;;;;;;3;2.5;;;;;;;16.16;100;939.5742;;;;
2023/08/18 02:45:17;;;;;;;2.9;2.6;;;;;;;16.19;100;939.4975;;;;
2023/08/18 02:47:42;;;;;;;4.3;2.7;;;;;;;16.16;100;939.4568;;;;
2023/08/18 02:50:12;;;;;;;4;2.7;;;;;;;16.2;100;939.4364;;;;
2023/08/18 02:52:39;;;;;;;3;2.4;;;;;;;16.23;100;939.536;;;;
2023/08/18 02:55:04;;;;;;;4;2.4;;;;;;;16.21;100;939.5528;;;;
2023/08/18 02:57:33;;;;;;;3.3;2.3;;;;;;;16.29;100;939.5531;;;;
2023/08/18 02:59:58;;;;;;;2.6;2.4;;;;;;;16.26;100;939.5067;;;;
2023/08/18 03:02:27;;;;;;;6.3;2.8;;;;;;;16.28;100;939.5372;;;;
2023/08/18 03:04:56;;;;;;;2.6;2.2;;;;;;;16.35;100;939.4359;;;;
2023/08/18 03:07:21;;;;;;;2.9;2.4;;;;;;;16.24;100;939.462;;;;
2023/08/18 03:09:48;;;;;;;2.5;2.3;;;;;;;16.21;100;939.426;;;;
2023/08/18 03:12:13;;;;;;;2.7;2;;;;;;;16.29;100;939.4109;;;;
2023/08/18 03:14:50;;;;;;;3.1;2.3;;;;;;;16.3;100;939.4389;;;;
2023/08/18 03:17:20;;;;;;;2.3;2.1;;;;;;;16.41;100;939.4706;;;;
2023/08/18 03:19:45;;;;;;;6.3;2.7;;;;;;;16.4;100;939.4322;;;;
2023/08/18 03:22:13;;;;;;;2.5;2.3;;;;;;;16.33;100;939.4739;;;;
2023/08/18 03:24:38;;;;;;;2.8;2.5;;;;;;;16.24;100;939.4861;;;;
2023/08/18 03:27:14;;;;;;;3.4;2.7;;;;;;;16.3;100;939.3513;;;;
2023/08/18 03:29:41;;;;;;;3.1;2.4;;;;;;;16.14;100;939.3583;;;;
2023/08/18 03:32:06;;;;;;;2.8;2.5;;;;;;;15.96;100;939.4208;;;;
2023/08/18 03:34:34;;;;;;;3.6;2.6;;;;;;;15.96;100;939.4119;;;;
2023/08/18 03:36:59;;;;;;;4.7;2.6;;;;;;;16.06;100;939.3777;;;;
2023/08/18 03:39:24;;;;;;;4.2;2.8;;;;;;;16;100;939.2815;;;;
2023/08/18 03:41:49;;;;;;;3.5;2.6;;;;;;;15.97;100;939.3147;;;;
2023/08/18 03:44:14;;;;;;;3.4;3.1;;;;;;;16.02;100;939.3483;;;;
2023/08/18 03:46:45;;;;;;;2.9;2.5;;;;;;;16.02;100;939.3786;;;;
2023/08/18 03:49:12;;;;;;;2.7;2.5;;;;;;;16.09;100;939.3741;;;;
2023/08/18 03:51:37;;;;;;;3.7;2.7;;;;;;;16.08;100;939.3437;;;;
2023/08/18 03:54:03;;;;;;;3.5;2.4;;;;;;;16.09;100;939.3074;;;;
2023/08/18 03:56:28;;;;;;;3.5;2.8;;;;;;;16.08;100;939.3669;;;;
2023/08/18 03:58:56;;;;;;;3;2.7;;;;;;;16.01;100;939.3794;;;;
2023/08/18 04:02:39;;;;;;;4.9;4.4;;;;;;;15.93;100;939.3689;;;;
2023/08/18 04:05:10;;;;;;;3.1;2.7;;;;;;;15.81;100;939.3312;;;;
2023/08/18 04:07:39;;;;;;;2.9;2.5;;;;;;;15.78;100;939.3828;;;;
2023/08/18 04:10:04;;;;;;;4;3.2;;;;;;;15.69;100;939.4238;;;;
2023/08/18 04:12:30;;;;;;;3.4;2.9;;;;;;;15.84;100;939.3881;;;;
2023/08/18 04:15:41;;;;;;;2.6;2.4;;;;;;;15.85;100;939.4163;;;;
2023/08/18 04:18:05;;;;;;;4.3;2.7;;;;;;;15.85;100;939.454;;;;
2023/08/18 04:20:34;;;;;;;4.2;2.7;;;;;;;15.84;100;939.4203;;;;
2023/08/18 04:22:58;;;;;;;2.7;2.5;;;;;;;15.9;100;939.3153;;;;
2023/08/18 04:25:25;;;;;;;3;2.6;;;;;;;16.03;100;939.3948;;;;
2023/08/18 04:27:50;;;;;;;2.9;2.5;;;;;;;15.85;100;939.4467;;;;
2023/08/18 04:30:15;;;;;;;4;2.8;;;;;;;15.98;100;939.4359;;;;
2023/08/18 04:32:41;;;;;;;3;2.7;;;;;;;15.95;100;939.4626;;;;
2023/08/18 04:35:05;;;;;;;3.1;2.6;;;;;;;16.03;100;939.4727;;;;
2023/08/18 04:37:34;;;;;;;3.3;2.7;;;;;;;16.09;100;939.5187;;;;
2023/08/18 04:39:59;;;;;;;3;2.5;;;;;;;16.08;100;939.5316;;;;
2023/08/18 04:42:28;;;;;;;3.2;2.8;;;;;;;15.94;100;939.5117;;;;
2023/08/18 04:44:53;;;;;;;3.6;2.5;;;;;;;15.88;100;939.5172;;;;
2023/08/18 04:47:19;;;;;;;3.7;2.8;;;;;;;15.78;100;939.5426;;;;
2023/08/18 04:50:00;;;;;;;3.7;2.7;;;;;;;15.78;100;939.5948;;;;
2023/08/18 04:52:28;;;;;;;5;2.8;;;;;;;15.83;100;939.5416;;;;
2023/08/18 04:54:53;;;;;;;4.6;2.7;;;;;;;15.93;100;939.495;;;;
2023/08/18 04:57:21;;;;;;;2.7;2.3;;;;;;;16.06;100;939.486;;;;
2023/08/18 04:59:46;;;;;;;3.8;2.8;;;;;;;16.18;100;939.5452;;;;
2023/08/18 05:02:14;;;;;;;4.4;2.7;;;;;;;16.26;100;939.6138;;;;
2023/08/18 05:04:39;;;;;;;3;2.7;;;;;;;16.31;100;939.6421;;;;
2023/08/18 05:07:04;;;;;;;3.9;2.8;;;;;;;16.27;100;939.6216;;;;
2023/08/18 05:09:31;;;;;;;3.3;2.5;;;;;;;16.12;100;939.6348;;;;
2023/08/18 05:11:56;;;;;;;2.8;2.6;;;;;;;16.25;100;939.6692;;;;
2023/08/18 05:14:21;;;;;;;4.4;3;;;;;;;16.31;100;939.5955;;;;
2023/08/18 05:17:37;;;;;;;3.3;2.3;;;;;;;16.32;100;939.6476;;;;
2023/08/18 05:20:04;;;;;;;5;2.4;;;;;;;16.25;100;939.6155;;;;
2023/08/18 05:22:29;;;;;;;5.4;2.4;;;;;;;16.32;100;939.65;;;;
2023/08/18 05:24:56;;;;;;;3.5;2.3;;;;;;;16.3;100;939.5787;;;;
2023/08/18 05:27:21;;;;;;;2.8;2.3;;;;;;;16.38;100;939.5497;;;;
2023/08/18 05:29:51;;;;;;;3.1;2;;;;;;;16.48;100;939.6422;;;;
2023/08/18 05:32:15;;;;;;;3.2;2.2;;;;;;;16.52;100;939.6827;;;;
2023/08/18 05:34:43;;;;;;;2.4;2.2;;;;;;;16.58;100;939.7037;;;;
2023/08/18 05:37:08;;;;;;;2.7;2.5;;;;;;;16.71;100;939.7358;;;;
2023/08/18 05:39:33;;;;;;;8.1;2.3;;;;;;;16.86;100;939.764;;;;
2023/08/18 05:41:58;;;;;;;3.3;2;;;;;;;17.01;100;939.7267;;;;
2023/08/18 05:44:24;;;;;;;2.6;2.3;;;;;;;17.2;100;939.6755;;;;
2023/08/18 05:46:49;;;;;;;3;2.2;;;;;;;17.38;100;939.7134;;;;
2023/08/18 05:49:14;;;;;;;4.8;2.7;;;;;;;17.57;100;939.7464;;;;
2023/08/18 05:51:42;;;;;;;3;2.6;;;;;;;17.69;99.32715;939.6976;;;;
2023/08/18 05:54:05;;;;;;;2;1.7;;;;;;;17.72;95.53809;939.7238;;;;
2023/08/18 05:56:31;;;;;;;2.4;2;;;;;;;17.76;97.49805;939.7336;;;;
2023/08/18 05:58:56;;;;;;;4.1;2.3;;;;;;;17.86;98.10059;939.7686;;;;
2023/08/18 06:01:21;;;;;;;1.7;1.6;;;;;;;17.76;94.56152;939.728;;;;
2023/08/18 06:03:46;;;;;;;2.1;1.9;;;;;;;17.69;96.63672;939.7419;;;;
2023/08/18 06:06:12;;;;;;;2.5;1.8;;;;;;;17.76;96.74316;939.7408;;;;
2023/08/18 06:08:40;;;;;;;2.3;1.8;;;;;;;17.79;97.58789;939.7668;;;;
2023/08/18 06:11:05;;;;;;;3.2;2;;;;;;;17.87;97.04785;939.7787;;;;
2023/08/18 06:13:30;;;;;;;3.2;1.8;;;;;;;18.02;96.61523;939.8158;;;;
2023/08/18 06:16:03;;;;;;;2.2;1.8;;;;;;;18.29;95.4082;939.7875;;;;
2023/08/18 06:18:32;;;;;;;3.1;2;;;;;;;18.58;92.55176;939.7132;;;;
2023/08/18 06:20:56;;;;;;;2.6;1.8;;;;;;;19.02;91.6416;939.761;;;;
2023/08/18 06:23:22;;;;;;;4.5;2.3;;;;;;;19.34;90.11523;939.7701;;;;
2023/08/18 06:25:47;;;;;;;1.8;1.5;;;;;;;19.28;87.03613;939.7836;;;;
2023/08/18 06:28:13;;;;;;;2;1.4;;;;;;;19.55;85.21484;939.8152;;;;
2023/08/18 06:30:38;;;;;;;2.5;1.6;;;;;;;19.65;84.94238;939.8068;;;;
2023/08/18 06:36:40;;;;;;;2.5;1.7;;;;;;;20.33;84.09277;939.7378;;;;
2023/08/18 06:39:10;;;;;;;2.8;1.6;;;;;;;20.61;80.80273;939.7497;;;;
2023/08/18 06:41:37;;;;;;;2.1;1.3;;;;;;;20.72;78.65039;939.7574;;;;
2023/08/18 06:44:01;;;;;;;1.4;1.3;;;;;;;20.38;78.06543;939.7275;;;;
2023/08/18 06:46:29;;;;;;;2;1.4;;;;;;;20.86;78.73438;939.7045;;;;
2023/08/18 06:51:45;;;;;;;1.6;1.5;;;;;;;21.04;80.62402;939.7192;;;;
2023/08/18 06:54:13;;;;;;;3.4;1.7;;;;;;;21.59;80.95898;939.6989;;;;
2023/08/18 06:56:37;;;;;;;2.1;1.3;;;;;;;21.58;77.31738;939.6667;;;;
2023/08/18 06:59:05;;;;;;;2;1.4;;;;;;;22.08;76.31348;939.6884;;;;
2023/08/18 07:01:30;;;;;;;2.1;1.5;;;;;;;22.28;76.54492;939.722;;;;
2023/08/18 07:03:59;;;;;;;2.2;1.6;;;;;;;22.21;74.14258;939.6786;;;;
2023/08/18 07:06:24;;;;;;;1.6;1.4;;;;;;;22.68;73.16602;939.7252;;;;
2023/08/18 07:08:50;;;;;;;1.6;1.5;;;;;;;22.8;70.8584;939.7495;;;;
2023/08/18 07:11:15;;;;;;;2.5;1.6;;;;;;;22.55;70.99414;939.7352;;;;
2023/08/18 07:13:44;;;;;;;2.2;1.7;;;;;;;22.6;71.4502;939.7307;;;;
2023/08/18 07:16:08;;;;;;;2.6;1.9;;;;;;;22.89;71.36621;939.7004;;;;
2023/08/18 07:18:34;;;;;;;2.3;1.4;;;;;;;23.11;72.34277;939.7432;;;;
2023/08/18 07:20:59;;;;;;;1.6;1.4;;;;;;;22.95;67.11328;939.6869;;;;
2023/08/18 07:23:26;;;;;;;1.5;1.4;;;;;;;23.67;68.39844;939.7491;;;;
2023/08/18 07:25:52;;;;;;;2.3;1.4;;;;;;;24.19;65.46191;939.7202;;;;
2023/08/18 07:28:22;;;;;;;1.5;1.4;;;;;;;24.77;68.81543;939.7269;;;;
2023/08/18 07:30:47;;;;;;;2.4;1.4;;;;;;;25.37;65.0791;939.7131;;;;
2023/08/18 07:33:13;;;;;;;2.2;1.5;;;;;;;25.47;60.2998;939.7238;;;;
2023/08/18 07:35:38;;;;;;;2.8;1.7;;;;;;;24.61;61.91602;939.7606;;;;
2023/08/18 07:38:05;;;;;;;2.4;1.6;;;;;;;23.97;66.65527;939.7831;;;;
2023/08/18 07:40:30;;;;;;;1.9;1.4;;;;;;;24.43;64.22559;939.7916;;;;
2023/08/18 07:42:55;;;;;;;1.9;1.2;;;;;;;25.05;63.07617;939.7766;;;;
2023/08/18 07:45:24;;;;;;;2.3;1.4;;;;;;;25.81;58.26563;939.7441;;;;
2023/08/18 07:47:49;;;;;;;2;1.3;;;;;;;25.8;59.2334;939.7355;;;;
2023/08/18 07:50:16;;;;;;;2.1;1.4;;;;;;;26.51;58.91211;939.6919;;;;
2023/08/18 07:52:41;;;;;;;1.5;1.2;;;;;;;25.23;61.25977;939.7459;;;;
2023/08/18 07:55:09;;;;;;;1.7;1.2;;;;;;;25.15;60.44629;939.7737;;;;
2023/08/18 07:57:34;;;;;;;2.8;1.5;;;;;;;25.7;60.61523;939.7531;;;;
2023/08/18 08:00:36;;;;;;;3.7;1.7;;;;;;;25.61;62.06738;939.7469;;;;
2023/08/18 08:03:07;;;;;;;2.2;1.4;;;;;;;26.55;59.03516;939.7783;;;;
2023/08/18 08:05:35;;;;;;;1.9;1.5;;;;;;;26.59;57.05176;939.7416;;;;
2023/08/18 08:08:00;;;;;;;1.8;1.4;;;;;;;26.41;57.8457;939.7316;;;;
2023/08/18 08:10:31;;;;;;;2.1;1.2;;;;;;;26.9;55.81152;939.6423;;;;
2023/08/18 08:13:01;;;;;;;1.8;1.5;;;;;;;26.96;55.19141;939.7004;;;;
2023/08/18 08:15:26;;;;;;;3.1;1.5;;;;;;;26.29;57.09668;939.6662;;;;
2023/08/18 08:17:55;;;;;;;1.9;1.4;;;;;;;27.47;55.63379;939.6108;;;;
2023/08/18 08:20:20;;;;;;;2.1;1.3;;;;;;;27.52;53.90723;939.7472;;;;
2023/08/18 08:22:45;;;;;;;2.3;1.6;;;;;;;28.04;55.53809;939.7214;;;;
2023/08/18 08:25:14;;;;;;;2.2;1.5;;;;;;;28.7;51.39551;939.6558;;;;
2023/08/18 08:27:39;;;;;;;1.7;1.4;;;;;;;27.98;52.2041;939.6925;;;;
2023/08/18 08:30:05;;;;;;;2.7;1.5;;;;;;;28.07;51.91797;939.6912;;;;
2023/08/18 08:32:30;;;;;;;2.5;1.8;;;;;;;28.49;50.9082;939.6375;;;;
2023/08/18 08:34:55;;;;;;;3.2;1.4;;;;;;;28.7;54.21582;939.5649;;;;
2023/08/18 08:37:42;;;;;;;1.4;1.3;;;;;;;27.64;53.85156;939.5808;;;;
2023/08/18 08:40:09;;;;;;;1.6;1.5;;;;;;;28.62;51.17285;939.6248;;;;
2023/08/18 08:42:31;;;;;;;1.6;1.5;;;;;;;26.07;57.02246;939.5711;;;;
2023/08/18 08:44:56;;;;;;;2.6;1.5;;;;;;;27.4;55.74414;939.5922;;;;
2023/08/18 08:47:24;;;;;;;2.8;1.5;;;;;;;28.2;54.31055;939.5419;;;;
2023/08/18 08:49:49;;;;;;;1.5;1.4;;;;;;;28.06;53.11719;939.4844;;;;
2023/08/18 08:52:16;;;;;;;2.3;1.4;;;;;;;27.2;54.81641;939.5569;;;;
2023/08/18 08:54:41;;;;;;;1.5;1.4;;;;;;;26.82;56.74902;939.4835;;;;
2023/08/18 08:57:06;;;;;;;2.7;1.7;;;;;;;26.35;56.99805;939.4799;;;;
2023/08/18 08:59:32;;;;;;;1.7;1.5;;;;;;;26.94;56.95508;939.4529;;;;
2023/08/18 09:01:57;;;;;;;1.6;1.5;;;;;;;27.5;56.61035;939.4736;;;;
2023/08/18 09:04:22;;;;;;;1.6;1.5;;;;;;;27.3;56.11133;939.4707;;;;
2023/08/18 09:06:51;;;;;;;1.7;1.4;;;;;;;26.31;58.05859;939.3653;;;;
2023/08/18 09:09:18;;;;;;;3.2;1.6;;;;;;;26.96;57.82227;939.4061;;;;
2023/08/18 09:12:07;;;;;;;1.9;1.7;;;;;;;27;58.0752;939.3859;;;;
2023/08/18 09:14:29;;;;;;;3.1;1.8;;;;;;;26.99;55.81055;939.3767;;;;
2023/08/18 09:16:56;;;;;;;1.8;1.6;;;;;;;27.06;60.25391;939.4063;;;;
2023/08/18 09:19:22;;;;;;;3.8;1.6;;;;;;;27.33;57.53809;939.4154;;;;
2023/08/18 09:21:47;;;;;;;1.6;1.3;;;;;;;26.89;55.78613;939.3692;;;;
2023/08/18 09:24:13;;;;;;;2;1.6;;;;;;;26.92;59.86621;939.3536;;;;
2023/08/18 09:26:39;;;;;;;1.6;1.5;;;;;;;26.98;58.2998;939.3544;;;;
2023/08/18 09:29:04;;;;;;;1.9;1.8;;;;;;;27;56.60742;939.3578;;;;
2023/08/18 09:31:53;;;;;;;1.6;1.5;;;;;;;27.01;55.17383;939.368;;;;
2023/08/18 09:34:23;;;;;;;2.2;1.7;;;;;;;27.01;54.21387;939.3484;;;;
2023/08/18 09:36:47;;;;;;;2.2;1.5;;;;;;;26.82;52.70898;939.3439;;;;
2023/08/18 09:39:13;;;;;;;2.5;1.6;;;;;;;26.97;56.98242;939.2951;;;;
2023/08/18 09:47:37;;;;;;;1.3;1.2;;;;;;;26.74;54.07324;939.2263;;;;
2023/08/18 09:50:04;;;;;;;2.3;1.8;;;;;;;26.8;56.66406;939.2166;;;;
2023/08/18 09:52:33;;;;;;;1.6;1.5;;;;;;;27.04;54.9043;939.2123;;;;
2023/08/18 09:54:54;;;;;;;2.2;1.4;;;;;;;27.08;52.29004;939.1969;;;;
2023/08/18 09:57:21;;;;;;;1.5;1.4;;;;;;;26.87;55.21582;939.1683;;;;
2023/08/18 09:59:46;;;;;;;2.3;1.5;;;;;;;26.98;53.07324;939.1589;;;;
2023/08/18 10:02:11;;;;;;;3.7;1.3;;;;;;;27.32;52.5791;939.1228;;;;
2023/08/18 10:04:36;;;;;;;1.7;1.6;;;;;;;27.43;52.38965;939.0803;;;;
2023/08/18 10:07:32;;;;;;;3.8;1.4;;;;;;;27.31;54.11914;939.0959;;;;
2023/08/18 10:09:56;;;;;;;2.4;1.5;;;;;;;27.36;52.70215;939.0955;;;;
2023/08/18 10:12:22;;;;;;;1.6;1.4;;;;;;;27.39;55.04297;939.0408;;;;
2023/08/18 10:14:47;;;;;;;1.4;1.3;;;;;;;27.54;51.59668;939.0611;;;;
2023/08/18 10:17:14;;;;;;;1.5;1.4;;;;;;;27.72;51.75879;939.116;;;;
2023/08/18 10:19:38;;;;;;;1.9;1.3;;;;;;;27.74;52.53223;939.0673;;;;
2023/08/18 10:22:03;;;;;;;2.2;1.5;;;;;;;27.82;51.24902;939.0658;;;;
2023/08/18 10:24:29;;;;;;;1.1;1.1;;;;;;;27.99;51.38574;939.0435;;;;
2023/08/18 10:26:54;;;;;;;1.4;1.3;;;;;;;28.13;52.00879;939.0605;;;;
2023/08/18 10:29:19;;;;;;;3;1.7;;;;;;;28.68;47.41992;939.0203;;;;
2023/08/18 10:31:46;;;;;;;2.1;1.2;;;;;;;28.91;43.68262;939.0209;;;;
2023/08/18 10:34:11;;;;;;;2.5;1;;;;;;;28.75;44.07129;939.0186;;;;
2023/08/18 10:36:38;;;;;;;1.8;1.2;;;;;;;29.24;46.34766;938.966;;;;
2023/08/18 10:39:04;;;;;;;2.8;1.6;;;;;;;30.03;43.98242;938.9827;;;;
2023/08/18 10:41:30;;;;;;;4.1;1.3;;;;;;;30.64;43.46777;938.9531;;;;
2023/08/18 10:43:57;;;;;;;2.5;1.3;;;;;;;31.11;46.04883;938.9821;;;;
2023/08/18 10:46:20;;;;;;;1.9;1.6;;;;;;;31.23;43.38086;938.9344;;;;
2023/08/18 10:48:45;;;;;;;2.2;1.3;;;;;;;31.75;42.85645;938.9001;;;;
2023/08/18 10:51:11;;;;;;;1.4;1.3;;;;;;;32.66;40.3252;938.8477;;;;
2023/08/18 10:53:37;;;;;;;1.6;1.4;;;;;;;32.78;39.06445;938.8489;;;;
2023/08/18 10:56:01;;;;;;;1.4;1.3;;;;;;;32.76;41.51074;938.8475;;;;
2023/08/18 10:58:26;;;;;;;2.8;1.9;;;;;;;32.2;39.27832;938.7974;;;;
2023/08/18 11:00:54;;;;;;;1.6;1.3;;;;;;;33.42;39.82813;938.812;;;;
2023/08/18 11:03:19;;;;;;;2.4;1.4;;;;;;;33.28;40.02051;938.7969;;;;
2023/08/18 11:05:45;;;;;;;2;1.4;;;;;;;33.26;38.58789;938.7661;;;;
2023/08/18 11:08:10;;;;;;;3.9;2.3;;;;;;;33.38;36.72266;938.7601;;;;
2023/08/18 11:10:39;;;;;;;2.7;1.5;;;;;;;33.47;38.76172;938.6835;;;;
2023/08/18 11:13:04;;;;;;;2.5;1.5;;;;;;;34.97;34.89746;938.6839;;;;
2023/08/18 11:15:32;;;;;;;1.2;1.1;;;;;;;35.57;35.04004;938.7213;;;;
2023/08/18 11:18:00;;;;;;;1.4;1.3;;;;;;;34.75;35.0625;938.6965;;;;
2023/08/18 11:20:26;;;;;;;1.7;1.5;;;;;;;34.83;37.62402;938.657;;;;
2023/08/18 11:22:51;;;;;;;3.7;2;;;;;;;35.69;36.20801;938.6925;;;;
2023/08/18 11:25:16;;;;;;;7;2.6;;;;;;;35.22;36.85938;938.6119;;;;
2023/08/18 11:27:44;;;;;;;6.1;2.8;;;;;;;34.92;37.49805;938.6005;;;;
2023/08/18 11:30:06;;;;;;;1.9;1.4;;;;;;;36.46;34.18848;938.65;;;;
2023/08/18 11:32:33;;;;;;;1.5;1.4;;;;;;;38.17;31.81348;938.6044;;;;
2023/08/18 11:34:59;;;;;;;2.3;1.6;;;;;;;37.6;32.92578;938.6661;;;;
2023/08/18 11:37:23;;;;;;;2.9;1.6;;;;;;;36.24;31.64355;938.6099;;;;
2023/08/18 11:39:49;;;;;;;3.6;1.3;;;;;;;35.96;35.25098;938.625;;;;
2023/08/18 11:42:14;;;;;;;1.6;1.1;;;;;;;37.2;31.625;938.6012;;;;
2023/08/18 11:44:40;;;;;;;1.4;1.1;;;;;;;38.24;29.23047;938.6298;;;;
2023/08/18 11:47:05;;;;;;;2.2;1.1;;;;;;;37.62;32.21191;938.6153;;;;
2023/08/18 11:49:32;;;;;;;2.6;1.2;;;;;;;36.45;34.12695;938.6144;;;;
2023/08/18 11:51:57;;;;;;;2;1.1;;;;;;;37.35;30.93262;938.5723;;;;
2023/08/18 11:54:25;;;;;;;3;1.1;;;;;;;38.83;28.30664;938.553;;;;
2023/08/18 11:56:50;;;;;;;1.5;1.1;;;;;;;37.52;30.81055;938.5848;;;;
2023/08/18 11:59:18;;;;;;;2.9;1.4;;;;;;;37.32;34.3252;938.5647;;;;
2023/08/18 12:01:43;;;;;;;1.6;1.4;;;;;;;36.76;33.44824;938.5086;;;;
2023/08/18 12:04:08;;;;;;;2.1;1.1;;;;;;;38.55;29.65137;938.5002;;;;
2023/08/18 12:06:33;;;;;;;1.6;1.1;;;;;;;38.86;30.69336;938.4847;;;;
2023/08/18 12:09:12;;;;;;;1.2;1.1;;;;;;;39.22;29.65723;938.4964;;;;
2023/08/18 12:12:27;;;;;;;1.2;1;;;;;;;40.71;28.1416;938.5358;;;;
2023/08/18 12:14:52;;;;;;;1.4;1.2;;;;;;;39.97;27.64551;938.4376;;;;
2023/08/18 12:17:17;;;;;;;1.6;1.2;;;;;;;41.07;26.97754;938.4791;;;;
2023/08/18 12:19:42;;;;;;;3;1;;;;;;;41.09;27.38184;938.4228;;;;
2023/08/18 12:22:09;;;;;;;2.4;1.5;;;;;;;40.28;28.59082;938.465;;;;
2023/08/18 12:24:36;;;;;;;4.5;1.5;;;;;;;39.45;31;938.4333;;;;
2023/08/18 12:27:03;;;;;;;2.6;1.1;;;;;;;39.09;30.22168;938.3819;;;;
2023/08/18 12:29:28;;;;;;;3.1;1.2;;;;;;;39.03;29.29199;938.3764;;;;
2023/08/18 12:31:53;;;;;;;2;1.2;;;;;;;38.91;29.12695;938.3467;;;;
2023/08/18 12:34:19;;;;;;;3.7;1.2;;;;;;;36.75;33.84668;938.3308;;;;
2023/08/18 12:36:51;;;;;;;1.2;1.1;;;;;;;34.95;37.19922;938.2928;;;;
2023/08/18 12:39:20;;;;;;;2.1;1.2;;;;;;;35.59;35.8623;938.3036;;;;
2023/08/18 12:41:43;;;;;;;1.7;1.1;;;;;;;35.65;34.63574;938.319;;;;
2023/08/18 12:44:12;;;;;;;3.4;1.2;;;;;;;34.75;35.14551;938.2363;;;;
2023/08/18 12:46:36;;;;;;;2;1.1;;;;;;;34.26;35.46875;938.3008;;;;
2023/08/18 12:49:04;;;;;;;1.5;1.1;;;;;;;33.91;37.78906;938.2715;;;;
2023/08/18 12:51:27;;;;;;;1.9;1.1;;;;;;;33.38;38.26172;938.2816;;;;
2023/08/18 12:53:54;;;;;;;2.6;1.5;;;;;;;33.05;39.58008;938.2693;;;;
2023/08/18 12:56:19;;;;;;;1.4;1.1;;;;;;;32.77;42.18457;938.3072;;;;
2023/08/18 12:58:46;;;;;;;2.1;1.3;;;;;;;32.35;42.10938;938.2924;;;;
2023/08/18 13:01:12;;;;;;;1.4;1.1;;;;;;;32.41;40.63965;938.2475;;;;
2023/08/18 13:03:38;;;;;;;1.2;1.1;;;;;;;32.42;39.99316;938.2639;;;;
2023/08/18 13:06:03;;;;;;;2.8;1.4;;;;;;;32.3;41.04883;938.2422;;;;
2023/08/18 13:08:32;;;;;;;1.7;1.3;;;;;;;32.11;40.60059;938.2916;;;;
2023/08/18 13:10:57;;;;;;;1.9;1.5;;;;;;;32.1;41.0918;938.2463;;;;
2023/08/18 13:13:23;;;;;;;3.3;1.2;;;;;;;31.99;41.14063;938.2658;;;;
2023/08/18 13:15:49;;;;;;;2;1.4;;;;;;;31.85;42.14746;938.3044;;;;
2023/08/18 13:18:14;;;;;;;1.6;1.3;;;;;;;31.78;42.08008;938.2503;;;;
2023/08/18 13:20:39;;;;;;;1.7;1.4;;;;;;;31.85;42.44629;938.248;;;;
2023/08/18 13:23:07;;;;;;;1.7;1.5;;;;;;;31.83;43.33008;938.2047;;;;
2023/08/18 13:25:31;;;;;;;1.4;1.1;;;;;;;31.77;43.51758;938.1852;;;;
2023/08/18 13:27:56;;;;;;;2.8;1.4;;;;;;;31.93;42.64551;938.2173;;;;
2023/08/18 13:30:21;;;;;;;2.3;1.3;;;;;;;31.75;42.9043;938.1633;;;;
2023/08/18 13:32:46;;;;;;;3.6;1.4;;;;;;;31.85;42.1709;938.1973;;;;
2023/08/18 13:35:12;;;;;;;1.6;1.1;;;;;;;31.51;42.16211;938.1926;;;;
2023/08/18 13:37:37;;;;;;;2.2;1.4;;;;;;;31.43;42.80176;938.1616;;;;
2023/08/18 13:40:07;;;;;;;1.7;1.4;;;;;;;31.46;43.13965;938.173;;;;
2023/08/18 13:42:32;;;;;;;2;1.2;;;;;;;31.7;42.85156;938.1766;;;;
2023/08/18 13:44:57;;;;;;;2.5;1.3;;;;;;;31.89;43.06055;938.1333;;;;
2023/08/18 13:47:22;;;;;;;2.9;1.4;;;;;;;31.79;41.86523;938.1023;;;;
2023/08/18 13:49:49;;;;;;;1.5;1.4;;;;;;;31.81;42.65723;938.0857;;;;
2023/08/18 13:52:15;;;;;;;4.1;1.2;;;;;;;31.84;41.35547;938.0586;;;;
2023/08/18 13:54:41;;;;;;;2.8;1.3;;;;;;;31.78;42.2959;938.0922;;;;
2023/08/18 13:57:09;;;;;;;2.1;1.3;;;;;;;31.78;42.16406;938.1116;;;;
2023/08/18 13:59:34;;;;;;;1.8;1.2;;;;;;;31.72;42.11035;938.1092;;;;
2023/08/18 14:02:03;;;;;;;2.2;1.3;;;;;;;31.7;41.82129;938.0396;;;;
2023/08/18 14:04:30;;;;;;;2;1.4;;;;;;;31.61;41.60938;938.0581;;;;
2023/08/18 14:06:58;;;;;;;2.9;1.4;;;;;;;31.48;43.05762;938.0759;;;;
2023/08/18 14:09:23;;;;;;;3.8;1.7;;;;;;;31.5;42.78516;938.0271;;;;
2023/08/18 14:11:48;;;;;;;2.5;1.3;;;;;;;31.49;42.29297;938.0291;;;;
2023/08/18 14:14:14;;;;;;;2.9;1.5;;;;;;;31.55;42.23926;938.0105;;;;
2023/08/18 14:16:57;;;;;;;2.5;1.2;;;;;;;31.63;43;938.0148;;;;
2023/08/18 14:19:23;;;;;;;2.1;1.3;;;;;;;31.69;43.73633;938.0198;;;;
2023/08/18 14:21:48;;;;;;;1.5;1.4;;;;;;;31.61;44.17188;937.985;;;;
2023/08/18 14:24:13;;;;;;;1.5;1.4;;;;;;;31.52;43.66016;937.9713;;;;
2023/08/18 14:26:41;;;;;;;1.6;1.2;;;;;;;31.22;42.74609;937.9733;;;;
2023/08/18 14:29:07;;;;;;;3.5;1.9;;;;;;;31.12;43.59863;937.9624;;;;
2023/08/18 14:31:32;;;;;;;2.3;1.2;;;;;;;30.96;42.91309;937.9171;;;;
2023/08/18 14:33:58;;;;;;;2.2;1.4;;;;;;;30.85;43.42871;937.925;;;;
2023/08/18 14:36:24;;;;;;;2;1.3;;;;;;;30.8;43.94922;937.9398;;;;
2023/08/18 14:38:49;;;;;;;2.4;1.2;;;;;;;30.74;45.0791;937.9394;;;;
2023/08/18 14:41:16;;;;;;;2.4;1.2;;;;;;;30.69;44.15527;937.9189;;;;
2023/08/18 14:43:41;;;;;;;2.1;1.2;;;;;;;30.69;44.79883;937.9275;;;;
2023/08/18 14:46:08;;;;;;;3.7;1.5;;;;;;;30.69;44.54785;937.9363;;;;
2023/08/18 14:48:33;;;;;;;3.3;1.5;;;;;;;30.55;44.49902;937.9302;;;;
2023/08/18 14:50:59;;;;;;;2.5;1.3;;;;;;;30.43;44.30762;937.8738;;;;
2023/08/18 14:53:24;;;;;;;1.7;1.4;;;;;;;30.38;44.54102;937.8707;;;;
2023/08/18 14:55:52;;;;;;;2.1;1.3;;;;;;;30.3;45.01172;937.8703;;;;
2023/08/18 14:58:17;;;;;;;2.3;1.5;;;;;;;30.15;45.7002;937.865;;;;
2023/08/18 15:00:44;;;;;;;4.3;1.8;;;;;;;30.25;47.11914;937.8531;;;;
2023/08/18 15:03:10;;;;;;;2.8;1.4;;;;;;;30.24;46.34277;937.884;;;;